Terminal Aerodrome Forecast
Issued by NWS

Home | Current Version | Previous Version | Text Only | Print | Product List | Glossary On
Versions: 1 2 3 4 5 6 7 8 9 10 11 12
000
FTUS45 KRIW 301127
TAFBPI
TAF
KBPI 301127Z 3012/0112 VRB05KT P6SM BKN050
     FM301500 VRB05KT P6SM SCT050 BKN150
     FM010000 34007KT P6SM SCT050 BKN100
     FM010900 VRB05KT P6SM VCSH BKN050=

USA.gov is the U.S. government's official web portal to all federal, state and local government web resources and services.